sensor_id;sensor_type;location;lat;lon;timestamp;pressure;altitude;pressure_sealevel;temperature
61703;BMP280;47622;47.726;3.298;2023-04-10T00:00:59;99435.66;;;6.97
61703;BMP280;47622;47.726;3.298;2023-04-10T00:03:26;99429.91;;;6.85
61703;BMP280;47622;47.726;3.298;2023-04-10T00:05:53;99424.47;;;6.81
61703;BMP280;47622;47.726;3.298;2023-04-10T00:08:23;99422.88;;;6.80
61703;BMP280;47622;47.726;3.298;2023-04-10T00:10:49;99430.69;;;6.85
61703;BMP280;47622;47.726;3.298;2023-04-10T00:13:15;99426.53;;;6.79
61703;BMP280;47622;47.726;3.298;2023-04-10T00:15:41;99423.16;;;6.64
61703;BMP280;47622;47.726;3.298;2023-04-10T00:18:07;99430.22;;;6.58
61703;BMP280;47622;47.726;3.298;2023-04-10T00:20:32;99423.44;;;6.47
61703;BMP280;47622;47.726;3.298;2023-04-10T00:22:58;99414.56;;;6.38
61703;BMP280;47622;47.726;3.298;2023-04-10T00:25:24;99414.56;;;6.38
61703;BMP280;47622;47.726;3.298;2023-04-10T00:27:51;99411.97;;;6.53
61703;BMP280;47622;47.726;3.298;2023-04-10T00:30:18;99406.72;;;6.73
61703;BMP280;47622;47.726;3.298;2023-04-10T00:32:43;99401.50;;;6.94
61703;BMP280;47622;47.726;3.298;2023-04-10T00:35:09;99406.16;;;6.97
61703;BMP280;47622;47.726;3.298;2023-04-10T00:37:35;99407.19;;;7.06
61703;BMP280;47622;47.726;3.298;2023-04-10T00:40:00;99400.94;;;6.97
61703;BMP280;47622;47.726;3.298;2023-04-10T00:42:26;99397.31;;;6.93
61703;BMP280;47622;47.726;3.298;2023-04-10T00:44:52;99397.31;;;6.88
61703;BMP280;47622;47.726;3.298;2023-04-10T00:47:18;99402.03;;;6.85
61703;BMP280;47622;47.726;3.298;2023-04-10T00:49:44;99402.03;;;6.80
61703;BMP280;47622;47.726;3.298;2023-04-10T00:52:10;99395.25;;;6.79
61703;BMP280;47622;47.726;3.298;2023-04-10T00:54:36;99395.53;;;6.73
61703;BMP280;47622;47.726;3.298;2023-04-10T00:57:02;99393.22;;;6.66
61703;BMP280;47622;47.726;3.298;2023-04-10T00:59:29;99385.91;;;6.63
61703;BMP280;47622;47.726;3.298;2023-04-10T01:01:55;99382.81;;;6.51
61703;BMP280;47622;47.726;3.298;2023-04-10T01:04:22;99383.31;;;6.48
61703;BMP280;47622;47.726;3.298;2023-04-10T01:07:08;99386.72;;;6.43
61703;BMP280;47622;47.726;3.298;2023-04-10T01:09:47;99387.75;;;6.47
61703;BMP280;47622;47.726;3.298;2023-04-10T01:15:14;99376.06;;;6.35
61703;BMP280;47622;47.726;3.298;2023-04-10T01:20:22;99378.66;;;6.24
61703;BMP280;47622;47.726;3.298;2023-04-10T01:23:07;99377.13;;;6.18
61703;BMP280;47622;47.726;3.298;2023-04-10T01:30:46;99365.66;;;6.04
61703;BMP280;47622;47.726;3.298;2023-04-10T01:33:15;99367.19;;;6.00
61703;BMP280;47622;47.726;3.298;2023-04-10T01:35:46;99358.88;;;5.88
61703;BMP280;47622;47.726;3.298;2023-04-10T01:38:17;99359.38;;;5.90
61703;BMP280;47622;47.726;3.298;2023-04-10T01:40:44;99354.41;;;5.78
61703;BMP280;47622;47.726;3.298;2023-04-10T01:43:15;99366.16;;;5.76
61703;BMP280;47622;47.726;3.298;2023-04-10T01:45:41;99359.34;;;5.64
61703;BMP280;47622;47.726;3.298;2023-04-10T01:48:08;99360.13;;;5.60
61703;BMP280;47622;47.726;3.298;2023-04-10T01:50:35;99354.41;;;5.73
61703;BMP280;47622;47.726;3.298;2023-04-10T01:53:02;99354.69;;;5.71
61703;BMP280;47622;47.726;3.298;2023-04-10T01:55:30;99356.75;;;5.69
61703;BMP280;47622;47.726;3.298;2023-04-10T01:57:56;99348.94;;;5.64
61703;BMP280;47622;47.726;3.298;2023-04-10T02:00:22;99342.16;;;5.63
61703;BMP280;47622;47.726;3.298;2023-04-10T02:02:48;99353.09;;;5.60
61703;BMP280;47622;47.726;3.298;2023-04-10T02:05:14;99348.41;;;5.57
61703;BMP280;47622;47.726;3.298;2023-04-10T02:13:49;99347.31;;;5.38
61703;BMP280;47622;47.726;3.298;2023-04-10T02:16:18;99348.81;;;5.29
61703;BMP280;47622;47.726;3.298;2023-04-10T02:18:47;99345.72;;;5.22
61703;BMP280;47622;47.726;3.298;2023-04-10T02:21:14;99341.53;;;5.21
61703;BMP280;47622;47.726;3.298;2023-04-10T02:23:40;99351.94;;;5.26
61703;BMP280;47622;47.726;3.298;2023-04-10T02:26:07;99342.09;;;5.33
61703;BMP280;47622;47.726;3.298;2023-04-10T02:28:33;99342.59;;;5.30
61703;BMP280;47622;47.726;3.298;2023-04-10T02:30:58;99338.72;;;5.27
61703;BMP280;47622;47.726;3.298;2023-04-10T02:33:24;99341.00;;;5.19
61703;BMP280;47622;47.726;3.298;2023-04-10T02:35:50;99335.78;;;5.08
61703;BMP280;47622;47.726;3.298;2023-04-10T02:38:15;99344.59;;;5.07
61703;BMP280;47622;47.726;3.298;2023-04-10T02:40:41;99337.59;;;5.13
61703;BMP280;47622;47.726;3.298;2023-04-10T02:43:07;99329.03;;;5.07
61703;BMP280;47622;47.726;3.298;2023-04-10T02:45:32;99325.59;;;5.02
61703;BMP280;47622;47.726;3.298;2023-04-10T02:47:59;99327.94;;;5.03
61703;BMP280;47622;47.726;3.298;2023-04-10T02:50:25;99328.97;;;4.97
61703;BMP280;47622;47.726;3.298;2023-04-10T02:52:54;99326.88;;;4.99
61703;BMP280;47622;47.726;3.298;2023-04-10T02:55:20;99334.66;;;4.99
61703;BMP280;47622;47.726;3.298;2023-04-10T02:57:45;99322.44;;;4.95
61703;BMP280;47622;47.726;3.298;2023-04-10T03:00:11;99336.78;;;5.02
61703;BMP280;47622;47.726;3.298;2023-04-10T03:02:37;99327.69;;;5.05
61703;BMP280;47622;47.726;3.298;2023-04-10T03:05:03;99331.88;;;5.06
61703;BMP280;47622;47.726;3.298;2023-04-10T03:07:30;99329.53;;;5.14
61703;BMP280;47622;47.726;3.298;2023-04-10T03:09:56;99331.09;;;5.15
61703;BMP280;47622;47.726;3.298;2023-04-10T03:12:22;99328.53;;;5.21
61703;BMP280;47622;47.726;3.298;2023-04-10T03:14:47;99323.91;;;5.28
61703;BMP280;47622;47.726;3.298;2023-04-10T03:17:13;99326.97;;;5.20
61703;BMP280;47622;47.726;3.298;2023-04-10T03:19:38;99339.94;;;5.14
61703;BMP280;47622;47.726;3.298;2023-04-10T03:22:04;99326.94;;;5.09
61703;BMP280;47622;47.726;3.298;2023-04-10T03:24:29;99330.06;;;5.11
61703;BMP280;47622;47.726;3.298;2023-04-10T03:26:55;99331.63;;;5.12
61703;BMP280;47622;47.726;3.298;2023-04-10T03:29:21;99315.50;;;5.15
61703;BMP280;47622;47.726;3.298;2023-04-10T03:31:48;99320.22;;;5.19
61703;BMP280;47622;47.726;3.298;2023-04-10T03:34:13;99325.44;;;5.24
61703;BMP280;47622;47.726;3.298;2023-04-10T03:36:39;99329.59;;;5.25
61703;BMP280;47622;47.726;3.298;2023-04-10T03:39:05;99319.72;;;5.22
61703;BMP280;47622;47.726;3.298;2023-04-10T03:41:31;99321.78;;;5.30
61703;BMP280;47622;47.726;3.298;2023-04-10T03:43:57;99318.44;;;5.34
61703;BMP280;47622;47.726;3.298;2023-04-10T03:46:23;99320.78;;;5.36
61703;BMP280;47622;47.726;3.298;2023-04-10T03:48:48;99327.53;;;5.37
61703;BMP280;47622;47.726;3.298;2023-04-10T03:51:15;99318.97;;;5.36
61703;BMP280;47622;47.726;3.298;2023-04-10T03:53:40;99305.72;;;5.33
61703;BMP280;47622;47.726;3.298;2023-04-10T03:56:07;99308.31;;;5.33
61703;BMP280;47622;47.726;3.298;2023-04-10T03:58:32;99306.50;;;5.33
61703;BMP280;47622;47.726;3.298;2023-04-10T04:00:58;99309.88;;;5.34
61703;BMP280;47622;47.726;3.298;2023-04-10T04:03:24;99308.81;;;5.35
61703;BMP280;47622;47.726;3.298;2023-04-10T04:05:49;99309.88;;;5.34
61703;BMP280;47622;47.726;3.298;2023-04-10T04:08:16;99308.03;;;5.34
61703;BMP280;47622;47.726;3.298;2023-04-10T04:10:42;99306.72;;;5.32
61703;BMP280;47622;47.726;3.298;2023-04-10T04:13:07;99309.84;;;5.24
61703;BMP280;47622;47.726;3.298;2023-04-10T04:15:33;99309.31;;;5.22
61703;BMP280;47622;47.726;3.298;2023-04-10T04:17:59;99309.31;;;5.22
61703;BMP280;47622;47.726;3.298;2023-04-10T04:20:25;99310.38;;;5.26
61703;BMP280;47622;47.726;3.298;2023-04-10T04:22:50;99310.38;;;5.26
61703;BMP280;47622;47.726;3.298;2023-04-10T04:25:16;99309.03;;;5.18
61703;BMP280;47622;47.726;3.298;2023-04-10T04:27:45;99305.13;;;5.15
61703;BMP280;47622;47.726;3.298;2023-04-10T04:30:10;99299.91;;;5.15
61703;BMP280;47622;47.726;3.298;2023-04-10T04:32:36;99301.22;;;5.13
61703;BMP280;47622;47.726;3.298;2023-04-10T04:35:02;99308.75;;;5.09
61703;BMP280;47622;47.726;3.298;2023-04-10T04:37:27;99308.72;;;5.04
61703;BMP280;47622;47.726;3.298;2023-04-10T04:39:53;99304.81;;;5.02
61703;BMP280;47622;47.726;3.298;2023-04-10T04:42:18;99307.94;;;5.04
61703;BMP280;47622;47.726;3.298;2023-04-10T04:44:44;99304.56;;;5.03
61703;BMP280;47622;47.726;3.298;2023-04-10T04:47:10;99299.84;;;5.00
61703;BMP280;47622;47.726;3.298;2023-04-10T04:49:37;99306.63;;;4.96
61703;BMP280;47622;47.726;3.298;2023-04-10T04:52:03;99304.53;;;4.93
61703;BMP280;47622;47.726;3.298;2023-04-10T04:54:28;99304.00;;;4.91
61703;BMP280;47622;47.726;3.298;2023-04-10T04:56:54;99309.44;;;4.90
61703;BMP280;47622;47.726;3.298;2023-04-10T04:59:21;99313.88;;;4.94
61703;BMP280;47622;47.726;3.298;2023-04-10T05:01:46;99315.44;;;4.95
61703;BMP280;47622;47.726;3.298;2023-04-10T05:04:12;99324.28;;;4.94
61703;BMP280;47622;47.726;3.298;2023-04-10T05:06:37;99323.50;;;4.94
61703;BMP280;47622;47.726;3.298;2023-04-10T05:09:03;99308.63;;;4.84
61703;BMP280;47622;47.726;3.298;2023-04-10T05:11:29;99313.81;;;4.74
61703;BMP280;47622;47.726;3.298;2023-04-10T05:13:55;99315.06;;;4.71
61703;BMP280;47622;47.726;3.298;2023-04-10T05:16:21;99310.16;;;4.75
61703;BMP280;47622;47.726;3.298;2023-04-10T05:18:47;99313.03;;;4.83
61703;BMP280;47622;47.726;3.298;2023-04-10T05:21:12;99319.38;;;5.03
61703;BMP280;47622;47.726;3.298;2023-04-10T05:23:39;99319.13;;;5.04
61703;BMP280;47622;47.726;3.298;2023-04-10T05:26:05;99326.94;;;5.09
61703;BMP280;47622;47.726;3.298;2023-04-10T05:28:31;99319.72;;;5.22
61703;BMP280;47622;47.726;3.298;2023-04-10T05:30:56;99319.72;;;5.32
61703;BMP280;47622;47.726;3.298;2023-04-10T05:33:22;99324.19;;;5.41
61703;BMP280;47622;47.726;3.298;2023-04-10T05:35:47;99317.16;;;5.47
61703;BMP280;47622;47.726;3.298;2023-04-10T05:38:13;99332.28;;;5.60
61703;BMP280;47622;47.726;3.298;2023-04-10T05:40:38;99327.63;;;5.67
61703;BMP280;47622;47.726;3.298;2023-04-10T05:43:05;99325.53;;;5.80
61703;BMP280;47622;47.726;3.298;2023-04-10T05:45:31;99324.00;;;5.84
61703;BMP280;47622;47.726;3.298;2023-04-10T05:47:56;99325.53;;;5.95
61703;BMP280;47622;47.726;3.298;2023-04-10T05:50:22;99326.59;;;6.09
61703;BMP280;47622;47.726;3.298;2023-04-10T05:52:48;99325.81;;;6.14
61703;BMP280;47622;47.726;3.298;2023-04-10T05:55:14;99326.88;;;6.28
61703;BMP280;47622;47.726;3.298;2023-04-10T05:57:40;99333.34;;;6.25
61703;BMP280;47622;47.726;3.298;2023-04-10T06:00:06;99339.59;;;6.24
61703;BMP280;47622;47.726;3.298;2023-04-10T06:02:32;99347.94;;;6.32
61703;BMP280;47622;47.726;3.298;2023-04-10T06:04:57;99351.56;;;6.41
61703;BMP280;47622;47.726;3.298;2023-04-10T06:07:23;99343.19;;;6.49
61703;BMP280;47622;47.726;3.298;2023-04-10T06:09:49;99354.66;;;6.63
61703;BMP280;47622;47.726;3.298;2023-04-10T06:12:14;99359.84;;;6.68
61703;BMP280;47622;47.726;3.298;2023-04-10T06:14:40;99356.16;;;6.79
61703;BMP280;47622;47.726;3.298;2023-04-10T06:17:07;99361.84;;;6.92
61703;BMP280;47622;47.726;3.298;2023-04-10T06:19:32;99360.47;;;7.14
61703;BMP280;47622;47.726;3.298;2023-04-10T06:21:58;99358.81;;;7.34
61703;BMP280;47622;47.726;3.298;2023-04-10T06:24:23;99369.09;;;7.59
61703;BMP280;47622;47.726;3.298;2023-04-10T06:26:49;99377.88;;;7.79
61703;BMP280;47622;47.726;3.298;2023-04-10T06:29:14;99374.34;;;7.98
61703;BMP280;47622;47.726;3.298;2023-04-10T06:31:40;99373.13;;;8.20
61703;BMP280;47622;47.726;3.298;2023-04-10T06:34:06;99377.69;;;8.33
61703;BMP280;47622;47.726;3.298;2023-04-10T06:36:31;99375.44;;;8.50
61703;BMP280;47622;47.726;3.298;2023-04-10T06:38:57;99379.50;;;8.62
61703;BMP280;47622;47.726;3.298;2023-04-10T06:41:23;99393.13;;;8.82
61703;BMP280;47622;47.726;3.298;2023-04-10T06:43:49;99389.34;;;8.94
61703;BMP280;47622;47.726;3.298;2023-04-10T06:46:14;99387.81;;;9.11
61703;BMP280;47622;47.726;3.298;2023-04-10T06:48:40;99391.28;;;9.26
61703;BMP280;47622;47.726;3.298;2023-04-10T06:51:06;99386.28;;;9.29
61703;BMP280;47622;47.726;3.298;2023-04-10T06:53:31;99374.81;;;9.44
61703;BMP280;47622;47.726;3.298;2023-04-10T06:55:57;99380.84;;;9.63
61703;BMP280;47622;47.726;3.298;2023-04-10T06:58:23;99388.25;;;9.75
61703;BMP280;47622;47.726;3.298;2023-04-10T07:00:49;99388.94;;;9.81
61703;BMP280;47622;47.726;3.298;2023-04-10T07:03:14;99385.59;;;9.94
61703;BMP280;47622;47.726;3.298;2023-04-10T07:05:40;99380.19;;;10.04
61703;BMP280;47622;47.726;3.298;2023-04-10T07:08:05;99378.16;;;10.01
61703;BMP280;47622;47.726;3.298;2023-04-10T07:10:33;99380.56;;;9.97
61703;BMP280;47622;47.726;3.298;2023-04-10T07:12:58;99370.69;;;10.08
61703;BMP280;47622;47.726;3.298;2023-04-10T07:15:25;99366.59;;;10.16
61703;BMP280;47622;47.726;3.298;2023-04-10T07:17:51;99361.97;;;10.26
61703;BMP280;47622;47.726;3.298;2023-04-10T07:20:16;99370.72;;;10.35
61703;BMP280;47622;47.726;3.298;2023-04-10T07:22:42;99370.22;;;10.47
61703;BMP280;47622;47.726;3.298;2023-04-10T07:25:08;99347.63;;;10.65
61703;BMP280;47622;47.726;3.298;2023-04-10T07:27:34;99357.22;;;10.83
61703;BMP280;47622;47.726;3.298;2023-04-10T07:30:00;99355.56;;;11.01
61703;BMP280;47622;47.726;3.298;2023-04-10T07:32:26;99361.00;;;11.27
61703;BMP280;47622;47.726;3.298;2023-04-10T07:34:51;99363.25;;;11.65
61703;BMP280;47622;47.726;3.298;2023-04-10T07:37:17;99364.34;;;11.86
61703;BMP280;47622;47.726;3.298;2023-04-10T07:39:43;99360.88;;;12.47
61703;BMP280;47622;47.726;3.298;2023-04-10T07:42:10;99357.84;;;12.71
61703;BMP280;47622;47.726;3.298;2023-04-10T07:44:35;99363.75;;;13.37
61703;BMP280;47622;47.726;3.298;2023-04-10T07:47:02;99358.97;;;13.86
61703;BMP280;47622;47.726;3.298;2023-04-10T07:49:27;99362.50;;;13.99
61703;BMP280;47622;47.726;3.298;2023-04-10T07:51:53;99358.50;;;13.84
61703;BMP280;47622;47.726;3.298;2023-04-10T07:54:18;99368.25;;;14.30
61703;BMP280;47622;47.726;3.298;2023-04-10T07:56:44;99378.75;;;14.10
61703;BMP280;47622;47.726;3.298;2023-04-10T07:59:10;99377.63;;;14.40
61703;BMP280;47622;47.726;3.298;2023-04-10T08:01:36;99378.00;;;14.30
61703;BMP280;47622;47.726;3.298;2023-04-10T08:04:01;99392.47;;;14.24
61703;BMP280;47622;47.726;3.298;2023-04-10T08:06:27;99387.47;;;14.81
61703;BMP280;47622;47.726;3.298;2023-04-10T08:08:53;99389.16;;;14.86
61703;BMP280;47622;47.726;3.298;2023-04-10T08:11:22;99397.91;;;15.19
61703;BMP280;47622;47.726;3.298;2023-04-10T08:13:49;99393.53;;;15.23
61703;BMP280;47622;47.726;3.298;2023-04-10T08:16:16;99388.53;;;15.55
61703;BMP280;47622;47.726;3.298;2023-04-10T08:18:41;99386.59;;;15.64
61703;BMP280;47622;47.726;3.298;2023-04-10T08:21:07;99385.06;;;15.87
61703;BMP280;47622;47.726;3.298;2023-04-10T08:23:32;99384.22;;;16.08
61703;BMP280;47622;47.726;3.298;2023-04-10T08:25:58;99388.06;;;16.35
61703;BMP280;47622;47.726;3.298;2023-04-10T08:28:23;99374.44;;;16.60
61703;BMP280;47622;47.726;3.298;2023-04-10T08:30:48;99385.69;;;16.70
61703;BMP280;47622;47.726;3.298;2023-04-10T08:33:14;99389.47;;;16.84
61703;BMP280;47622;47.726;3.298;2023-04-10T08:35:39;99386.69;;;16.93
61703;BMP280;47622;47.726;3.298;2023-04-10T08:38:05;99391.69;;;17.10
61703;BMP280;47622;47.726;3.298;2023-04-10T08:40:30;99395.38;;;17.65
61703;BMP280;47622;47.726;3.298;2023-04-10T08:42:56;99410.59;;;18.00
61703;BMP280;47622;47.726;3.298;2023-04-10T08:45:21;99395.97;;;18.60
61703;BMP280;47622;47.726;3.298;2023-04-10T08:47:46;99401.50;;;19.32
61703;BMP280;47622;47.726;3.298;2023-04-10T08:50:12;99400.56;;;19.02
61703;BMP280;47622;47.726;3.298;2023-04-10T08:52:42;99405.81;;;19.63
61703;BMP280;47622;47.726;3.298;2023-04-10T08:55:09;99395.88;;;19.14
61703;BMP280;47622;47.726;3.298;2023-04-10T08:57:37;99401.22;;;18.56
61703;BMP280;47622;47.726;3.298;2023-04-10T09:00:02;99394.03;;;17.87
61703;BMP280;47622;47.726;3.298;2023-04-10T09:02:28;99393.75;;;17.45
61703;BMP280;47622;47.726;3.298;2023-04-10T09:04:54;99392.81;;;17.09
61703;BMP280;47622;47.726;3.298;2023-04-10T09:07:20;99386.03;;;16.96
61703;BMP280;47622;47.726;3.298;2023-04-10T09:09:47;99374.63;;;16.68
61703;BMP280;47622;47.726;3.298;2023-04-10T09:12:12;99373.56;;;16.56
61703;BMP280;47622;47.726;3.298;2023-04-10T09:14:40;99366.53;;;16.48
61703;BMP280;47622;47.726;3.298;2023-04-10T09:19:35;99366.75;;;16.31
61703;BMP280;47622;47.726;3.298;2023-04-10T09:22:01;99353.25;;;16.08
61703;BMP280;47622;47.726;3.298;2023-04-10T09:24:26;99359.50;;;16.16
61703;BMP280;47622;47.726;3.298;2023-04-10T09:26:52;99357.63;;;16.28
61703;BMP280;47622;47.726;3.298;2023-04-10T09:29:17;99347.59;;;16.22
61703;BMP280;47622;47.726;3.298;2023-04-10T09:31:43;99356.22;;;16.19
61703;BMP280;47622;47.726;3.298;2023-04-10T09:36:43;99350.41;;;16.41
61703;BMP280;47622;47.726;3.298;2023-04-10T09:39:10;99352.31;;;16.41
61703;BMP280;47622;47.726;3.298;2023-04-10T09:41:53;99339.66;;;16.22
61703;BMP280;47622;47.726;3.298;2023-04-10T09:44:29;99346.50;;;16.63
61703;BMP280;47622;47.726;3.298;2023-04-10T09:49:50;99343.66;;;16.96
61703;BMP280;47622;47.726;3.298;2023-04-10T09:52:21;99343.44;;;16.89
61703;BMP280;47622;47.726;3.298;2023-04-10T09:54:47;99349.00;;;17.28
61703;BMP280;47622;47.726;3.298;2023-04-10T09:57:17;99355.41;;;17.26
61703;BMP280;47622;47.726;3.298;2023-04-10T09:59:48;99360.59;;;17.07
61703;BMP280;47622;47.726;3.298;2023-04-10T10:02:18;99362.31;;;17.15
61703;BMP280;47622;47.726;3.298;2023-04-10T10:04:45;99363.72;;;17.72
61703;BMP280;47622;47.726;3.298;2023-04-10T10:07:15;99358.72;;;18.21
61703;BMP280;47622;47.726;3.298;2023-04-10T10:09:42;99357.59;;;18.57
61703;BMP280;47622;47.726;3.298;2023-04-10T10:12:16;99348.88;;;18.57
61703;BMP280;47622;47.726;3.298;2023-04-10T10:17:14;99351.50;;;19.18
61703;BMP280;47622;47.726;3.298;2023-04-10T10:22:16;99349.63;;;19.68
61703;BMP280;47622;47.726;3.298;2023-04-10T10:24:45;99351.91;;;19.96
61703;BMP280;47622;47.726;3.298;2023-04-10T10:27:13;99361.88;;;20.33
61703;BMP280;47622;47.726;3.298;2023-04-10T10:29:41;99364.16;;;20.01
61703;BMP280;47622;47.726;3.298;2023-04-10T10:32:09;99354.94;;;19.94
61703;BMP280;47622;47.726;3.298;2023-04-10T10:34:37;99357.91;;;19.89
61703;BMP280;47622;47.726;3.298;2023-04-10T10:37:04;99355.41;;;20.00
61703;BMP280;47622;47.726;3.298;2023-04-10T10:42:24;99343.84;;;19.36
61703;BMP280;47622;47.726;3.298;2023-04-10T10:45:14;99345.31;;;18.91
61703;BMP280;47622;47.726;3.298;2023-04-10T10:47:44;99338.56;;;18.75
61703;BMP280;47622;47.726;3.298;2023-04-10T10:50:11;99331.25;;;18.68
61703;BMP280;47622;47.726;3.298;2023-04-10T10:52:47;99338.88;;;18.50
61703;BMP280;47622;47.726;3.298;2023-04-10T10:57:48;99335.22;;;18.20
61703;BMP280;47622;47.726;3.298;2023-04-10T11:00:15;99327.75;;;17.90
61703;BMP280;47622;47.726;3.298;2023-04-10T11:02:40;99322.97;;;17.80
61703;BMP280;47622;47.726;3.298;2023-04-10T11:05:06;99321.94;;;17.69
61703;BMP280;47622;47.726;3.298;2023-04-10T11:11:00;99317.63;;;17.45
61703;BMP280;47622;47.726;3.298;2023-04-10T11:13:27;99313.41;;;17.60
61703;BMP280;47622;47.726;3.298;2023-04-10T11:15:57;99319.41;;;17.57
61703;BMP280;47622;47.726;3.298;2023-04-10T11:21:17;99324.34;;;17.74
61703;BMP280;47622;47.726;3.298;2023-04-10T11:29:00;99317.38;;;17.85
61703;BMP280;47622;47.726;3.298;2023-04-10T11:31:26;99309.63;;;17.92
61703;BMP280;47622;47.726;3.298;2023-04-10T11:36:22;99303.91;;;18.10
61703;BMP280;47622;47.726;3.298;2023-04-10T11:39:05;99302.09;;;18.14
61703;BMP280;47622;47.726;3.298;2023-04-10T11:41:34;99308.91;;;17.96
61703;BMP280;47622;47.726;3.298;2023-04-10T11:44:03;99306.81;;;18.05
61703;BMP280;47622;47.726;3.298;2023-04-10T11:46:29;99298.50;;;18.06
61703;BMP280;47622;47.726;3.298;2023-04-10T11:48:59;99293.69;;;17.92
61703;BMP280;47622;47.726;3.298;2023-04-10T11:51:27;99285.28;;;17.90
61703;BMP280;47622;47.726;3.298;2023-04-10T11:54:13;99290.22;;;17.73
61703;BMP280;47622;47.726;3.298;2023-04-10T11:56:42;99291.31;;;17.87
61703;BMP280;47622;47.726;3.298;2023-04-10T11:59:08;99290.16;;;17.88
61703;BMP280;47622;47.726;3.298;2023-04-10T12:01:39;99278.88;;;17.91
61703;BMP280;47622;47.726;3.298;2023-04-10T12:04:18;99272.84;;;17.75
61703;BMP280;47622;47.726;3.298;2023-04-10T12:09:18;99267.53;;;17.75
61703;BMP280;47622;47.726;3.298;2023-04-10T12:11:53;99273.63;;;17.76
61703;BMP280;47622;47.726;3.298;2023-04-10T12:14:22;99273.00;;;17.82
61703;BMP280;47622;47.726;3.298;2023-04-10T12:16:53;99283.63;;;17.82
61703;BMP280;47622;47.726;3.298;2023-04-10T12:19:19;99274.88;;;17.82
61703;BMP280;47622;47.726;3.298;2023-04-10T12:21:45;99271.47;;;17.81
61703;BMP280;47622;47.726;3.298;2023-04-10T12:24:12;99269.94;;;18.00
61703;BMP280;47622;47.726;3.298;2023-04-10T12:26:58;99257.66;;;18.11
61703;BMP280;47622;47.726;3.298;2023-04-10T12:29:25;99272.66;;;18.03
61703;BMP280;47622;47.726;3.298;2023-04-10T12:31:52;99255.47;;;18.16
61703;BMP280;47622;47.726;3.298;2023-04-10T12:34:17;99246.19;;;18.07
61703;BMP280;47622;47.726;3.298;2023-04-10T12:36:51;99246.34;;;18.14
61703;BMP280;47622;47.726;3.298;2023-04-10T12:39:23;99252.09;;;17.97
61703;BMP280;47622;47.726;3.298;2023-04-10T12:41:49;99249.81;;;17.99
61703;BMP280;47622;47.726;3.298;2023-04-10T12:44:16;99240.56;;;17.73
61703;BMP280;47622;47.726;3.298;2023-04-10T12:46:43;99230.09;;;17.80
61703;BMP280;47622;47.726;3.298;2023-04-10T12:51:45;99240.31;;;17.98
61703;BMP280;47622;47.726;3.298;2023-04-10T12:54:32;99229.72;;;17.98
61703;BMP280;47622;47.726;3.298;2023-04-10T12:56:58;99230.84;;;17.97
61703;BMP280;47622;47.726;3.298;2023-04-10T12:59:25;99230.69;;;17.54
61703;BMP280;47622;47.726;3.298;2023-04-10T13:01:51;99221.66;;;17.40
61703;BMP280;47622;47.726;3.298;2023-04-10T13:04:19;99218.16;;;17.36
61703;BMP280;47622;47.726;3.298;2023-04-10T13:06:45;99224.13;;;17.33
61703;BMP280;47622;47.726;3.298;2023-04-10T13:09:11;99212.50;;;17.21
61703;BMP280;47622;47.726;3.298;2023-04-10T13:11:37;99211.81;;;17.24
61703;BMP280;47622;47.726;3.298;2023-04-10T13:14:03;99201.75;;;17.14
61703;BMP280;47622;47.726;3.298;2023-04-10T13:16:29;99198.84;;;17.19
61703;BMP280;47622;47.726;3.298;2023-04-10T13:18:54;99201.59;;;17.07
61703;BMP280;47622;47.726;3.298;2023-04-10T13:21:20;99194.38;;;17.23
61703;BMP280;47622;47.726;3.298;2023-04-10T13:23:50;99206.53;;;17.24
61703;BMP280;47622;47.726;3.298;2023-04-10T13:26:16;99212.00;;;17.32
61703;BMP280;47622;47.726;3.298;2023-04-10T13:28:42;99210.63;;;17.38
61703;BMP280;47622;47.726;3.298;2023-04-10T13:31:07;99202.41;;;17.43
61703;BMP280;47622;47.726;3.298;2023-04-10T13:33:33;99194.22;;;17.16
61703;BMP280;47622;47.726;3.298;2023-04-10T13:35:59;99212.50;;;17.21
61703;BMP280;47622;47.726;3.298;2023-04-10T13:38:24;99212.34;;;17.30
61703;BMP280;47622;47.726;3.298;2023-04-10T13:40:53;99207.03;;;17.14
61703;BMP280;47622;47.726;3.298;2023-04-10T13:43:18;99208.44;;;17.08
61703;BMP280;47622;47.726;3.298;2023-04-10T13:45:44;99212.19;;;17.07
61703;BMP280;47622;47.726;3.298;2023-04-10T13:48:10;99215.38;;;16.97
61703;BMP280;47622;47.726;3.298;2023-04-10T13:50:35;99204.50;;;17.02
61703;BMP280;47622;47.726;3.298;2023-04-10T13:53:01;99200.63;;;17.15
61703;BMP280;47622;47.726;3.298;2023-04-10T13:55:27;99199.78;;;17.27
61703;BMP280;47622;47.726;3.298;2023-04-10T13:57:52;99202.41;;;17.43
61703;BMP280;47622;47.726;3.298;2023-04-10T14:00:18;99202.97;;;17.52
61703;BMP280;47622;47.726;3.298;2023-04-10T14:02:44;99205.22;;;17.69
61703;BMP280;47622;47.726;3.298;2023-04-10T14:05:10;99207.59;;;17.74
61703;BMP280;47622;47.726;3.298;2023-04-10T14:07:35;99192.56;;;17.98
61703;BMP280;47622;47.726;3.298;2023-04-10T14:10:01;99193.25;;;18.14
61703;BMP280;47622;47.726;3.298;2023-04-10T14:12:27;99199.88;;;18.04
61703;BMP280;47622;47.726;3.298;2023-04-10T14:14:53;99197.03;;;18.13
61703;BMP280;47622;47.726;3.298;2023-04-10T14:17:19;99191.75;;;18.16
61703;BMP280;47622;47.726;3.298;2023-04-10T14:19:45;99190.56;;;18.33
61703;BMP280;47622;47.726;3.298;2023-04-10T14:22:13;99200.38;;;18.29
61703;BMP280;47622;47.726;3.298;2023-04-10T14:24:38;99186.25;;;18.44
61703;BMP280;47622;47.726;3.298;2023-04-10T14:27:04;99184.16;;;18.57
61703;BMP280;47622;47.726;3.298;2023-04-10T14:29:29;99187.56;;;18.80
61703;BMP280;47622;47.726;3.298;2023-04-10T14:31:58;99180.94;;;18.44
61703;BMP280;47622;47.726;3.298;2023-04-10T14:34:24;99167.00;;;18.09
61703;BMP280;47622;47.726;3.298;2023-04-10T14:36:50;99169.81;;;17.97
61703;BMP280;47622;47.726;3.298;2023-04-10T14:39:23;99157.78;;;17.83
61703;BMP280;47622;47.726;3.298;2023-04-10T14:41:49;99160.06;;;17.85
61703;BMP280;47622;47.726;3.298;2023-04-10T14:44:15;99165.72;;;17.64
61703;BMP280;47622;47.726;3.298;2023-04-10T14:46:41;99165.72;;;17.29
61703;BMP280;47622;47.726;3.298;2023-04-10T14:49:07;99171.44;;;17.12
61703;BMP280;47622;47.726;3.298;2023-04-10T14:51:33;99180.94;;;17.32
61703;BMP280;47622;47.726;3.298;2023-04-10T14:53:59;99166.19;;;17.15
61703;BMP280;47622;47.726;3.298;2023-04-10T14:56:24;99169.28;;;17.17
61703;BMP280;47622;47.726;3.298;2023-04-10T14:58:50;99169.03;;;17.42
61703;BMP280;47622;47.726;3.298;2023-04-10T15:01:16;99157.53;;;17.53
61703;BMP280;47622;47.726;3.298;2023-04-10T15:03:46;99165.72;;;17.83
61703;BMP280;47622;47.726;3.298;2023-04-10T15:06:12;99152.59;;;17.90